createdAt,value
2019-05-13T00:00:23.507Z,56.58
2019-05-13T00:02:49.045Z,56.72
2019-05-13T00:05:14.865Z,56.44
2019-05-13T00:07:40.349Z,56.95
2019-05-13T00:10:06.836Z,57.04
2019-05-13T00:12:32.202Z,57.53
2019-05-13T00:14:57.682Z,56.94
2019-05-13T00:17:23.701Z,57.10
2019-05-13T00:19:49.509Z,57.48
2019-05-13T00:22:14.934Z,57.35
2019-05-13T00:24:40.625Z,57.01
2019-05-13T00:27:06.059Z,57.18
2019-05-13T00:29:33.862Z,56.86
2019-05-13T00:31:58.673Z,57.02
2019-05-13T00:34:24.440Z,58.13
2019-05-13T00:36:49.917Z,57.93
2019-05-13T00:39:15.517Z,57.98
2019-05-13T00:41:41.240Z,58.25
2019-05-13T00:44:06.711Z,58.43
2019-05-13T00:46:33.970Z,58.45
2019-05-13T00:48:59.168Z,58.54
2019-05-13T00:51:24.622Z,58.24
2019-05-13T00:53:50.043Z,58.39
2019-05-13T00:56:23.875Z,58.66
2019-05-13T00:58:49.201Z,58.64
2019-05-13T01:01:14.578Z,58.54
2019-05-13T01:03:39.994Z,59.19
2019-05-13T01:06:05.948Z,58.79
2019-05-13T01:08:34.061Z,58.47
2019-05-13T01:10:59.463Z,58.65
2019-05-13T01:13:24.901Z,58.42
2019-05-13T01:15:50.382Z,58.89
2019-05-13T01:18:15.754Z,59.84
2019-05-13T01:20:43.880Z,59.04
2019-05-13T01:23:09.432Z,59.37
2019-05-13T01:25:35.013Z,59.35
2019-05-13T01:28:01.098Z,59.24
2019-05-13T01:30:26.551Z,60.84
2019-05-13T01:32:54.000Z,59.95
2019-05-13T01:35:19.416Z,59.83
2019-05-13T01:37:46.065Z,59.85
2019-05-13T01:40:20.482Z,59.86
2019-05-13T01:42:46.029Z,60.08
2019-05-13T01:45:13.678Z,60.35
2019-05-13T01:47:39.269Z,59.82
2019-05-13T01:50:04.893Z,60.07
2019-05-13T01:52:30.358Z,60.10
2019-05-13T01:54:55.778Z,59.87
2019-05-13T01:57:23.664Z,60.57
2019-05-13T01:59:48.416Z,60.78
2019-05-13T02:02:13.939Z,60.61
2019-05-13T02:04:39.319Z,60.56
2019-05-13T02:07:05.300Z,61.06
2019-05-13T02:09:33.769Z,61.27
2019-05-13T02:11:59.710Z,61.68
2019-05-13T02:14:25.210Z,61.21
2019-05-13T02:16:50.646Z,61.08
2019-05-13T02:19:16.079Z,61.31
2019-05-13T02:21:43.744Z,61.19
2019-05-13T02:24:08.732Z,61.20
2019-05-13T02:26:34.632Z,61.61
2019-05-13T02:29:00.117Z,61.35
2019-05-13T02:31:40.018Z,62.14
2019-05-13T02:33:53.240Z,62.06
2019-05-13T02:36:22.552Z,62.11
2019-05-13T02:38:45.891Z,62.12
2019-05-13T02:41:13.413Z,62.24
2019-05-13T02:43:41.260Z,62.21
2019-05-13T02:46:05.754Z,61.82
2019-05-13T02:48:33.100Z,62.13
2019-05-13T02:50:58.366Z,62.20
2019-05-13T02:53:24.537Z,62.54
2019-05-13T02:55:52.376Z,62.80
2019-05-13T02:58:17.256Z,62.96
2019-05-13T03:00:44.193Z,63.01
2019-05-13T03:03:12.824Z,63.21
2019-05-13T03:05:37.053Z,63.46
2019-05-13T03:08:03.371Z,63.63
2019-05-13T03:10:29.151Z,63.91
2019-05-13T03:12:54.773Z,63.63
2019-05-13T03:15:23.123Z,64.23
2019-05-13T03:18:06.541Z,64.22
2019-05-13T03:20:33.311Z,64.17
2019-05-13T03:23:02.782Z,64.92
2019-05-13T03:25:35.686Z,64.67
2019-05-13T03:28:03.100Z,64.71
2019-05-13T03:30:28.899Z,64.72
2019-05-13T03:33:01.228Z,65.39
2019-05-13T03:35:26.861Z,65.06
2019-05-13T03:37:48.721Z,65.21
2019-05-13T03:40:14.138Z,65.63
2019-05-13T03:42:43.437Z,65.43
2019-05-13T03:45:08.875Z,65.67
2019-05-13T03:47:36.704Z,65.53
2019-05-13T03:50:03.497Z,66.07
2019-05-13T03:52:33.269Z,65.96
2019-05-13T03:54:57.334Z,66.00
2019-05-13T03:57:23.324Z,66.36
2019-05-13T03:59:52.609Z,66.11
2019-05-13T04:02:18.268Z,66.29
2019-05-13T04:04:43.707Z,66.57
2019-05-13T04:07:09.168Z,66.26
2019-05-13T04:09:36.265Z,66.65
2019-05-13T04:12:03.178Z,66.41
2019-05-13T04:14:29.167Z,66.34
2019-05-13T04:16:54.708Z,65.93
2019-05-13T04:19:23.217Z,65.92
2019-05-13T04:21:47.702Z,67.74
2019-05-13T04:24:13.155Z,66.87
2019-05-13T04:26:38.613Z,66.45
2019-05-13T04:29:04.028Z,66.50
2019-05-13T04:31:33.040Z,66.34
2019-05-13T04:33:56.638Z,65.87
2019-05-13T04:36:23.406Z,65.40
2019-05-13T04:38:51.974Z,65.87
2019-05-13T04:41:16.492Z,66.38
2019-05-13T04:43:43.646Z,65.37
2019-05-13T04:46:13.604Z,65.67
2019-05-13T04:48:40.533Z,65.72
2019-05-13T04:51:04.427Z,66.50
2019-05-13T04:53:33.225Z,65.63
2019-05-13T04:55:57.343Z,65.59
2019-05-13T04:58:32.175Z,66.46
2019-05-13T05:01:19.177Z,66.55
2019-05-13T05:03:55.555Z,66.57
2019-05-13T05:07:07.557Z,66.09
2019-05-13T05:10:26.381Z,66.04
2019-05-13T05:13:28.651Z,66.20
2019-05-13T05:16:46.839Z,65.68
2019-05-13T05:20:32.299Z,65.54
2019-05-13T05:23:51.512Z,65.76
2019-05-13T05:27:23.371Z,65.38
2019-05-13T05:30:06.042Z,65.17
2019-05-13T05:32:51.798Z,66.51
2019-05-13T05:36:15.200Z,65.81
2019-05-13T05:39:08.463Z,66.31
2019-05-13T05:41:37.009Z,66.73
2019-05-13T05:44:04.726Z,66.10
2019-05-13T05:46:32.544Z,66.21
2019-05-13T05:49:02.842Z,66.04
2019-05-13T05:51:32.805Z,66.15
2019-05-13T05:54:05.140Z,66.29
2019-05-13T05:56:33.924Z,65.99
2019-05-13T05:59:03.290Z,65.89
2019-05-13T06:01:33.118Z,66.41
2019-05-13T06:04:01.514Z,66.61
2019-05-13T06:06:27.377Z,66.62
2019-05-13T06:08:52.955Z,65.99
2019-05-13T06:11:18.532Z,65.13
2019-05-13T06:13:43.978Z,64.59
2019-05-13T06:16:09.467Z,65.21
2019-05-13T06:18:35.005Z,64.47
2019-05-13T06:21:01.765Z,64.60
2019-05-13T06:23:27.351Z,64.22
2019-05-13T06:25:52.966Z,63.83
2019-05-13T06:28:21.663Z,64.11
2019-05-13T06:30:46.667Z,63.81
2019-05-13T06:33:12.509Z,62.68
2019-05-13T06:35:38.011Z,62.96
2019-05-13T06:38:03.437Z,63.06
2019-05-13T06:40:31.687Z,62.02
2019-05-13T06:42:56.326Z,61.08
2019-05-13T06:45:22.169Z,62.06
2019-05-13T06:47:48.028Z,60.99
2019-05-13T06:50:13.860Z,60.35
2019-05-13T06:52:48.339Z,60.35
2019-05-13T06:55:13.845Z,58.69
2019-05-13T06:57:39.347Z,59.61
2019-05-13T07:00:05.441Z,58.24
2019-05-13T07:02:33.022Z,57.50
2019-05-13T07:05:07.516Z,57.63
2019-05-13T07:07:33.245Z,57.11
2019-05-13T07:09:58.884Z,58.51
2019-05-13T07:12:24.615Z,57.01
2019-05-13T07:14:51.771Z,57.67
2019-05-13T07:17:23.139Z,57.41
2019-05-13T07:19:48.625Z,57.55
2019-05-13T07:22:14.668Z,56.53
2019-05-13T07:24:41.452Z,57.70
2019-05-13T07:27:07.133Z,56.75
2019-05-13T07:29:32.825Z,56.48
2019-05-13T07:31:58.584Z,57.15
2019-05-13T07:34:24.764Z,56.16
2019-05-13T07:36:51.323Z,56.44
2019-05-13T07:39:16.837Z,56.04
2019-05-13T07:41:44.572Z,54.91
2019-05-13T07:44:11.872Z,54.75
2019-05-13T07:46:37.227Z,53.75
2019-05-13T07:49:04.296Z,53.63
2019-05-13T07:51:31.610Z,54.00
2019-05-13T07:53:57.472Z,53.51
2019-05-13T07:56:24.010Z,53.07
2019-05-13T07:58:52.145Z,54.61
2019-05-13T08:01:16.603Z,54.56
2019-05-13T08:03:42.379Z,51.63
2019-05-13T08:06:08.057Z,54.36
2019-05-13T08:08:33.610Z,50.66
2019-05-13T08:11:01.090Z,52.69
2019-05-13T08:13:26.234Z,51.51
2019-05-13T08:15:54.375Z,49.64
2019-05-13T08:18:18.915Z,50.97
2019-05-13T08:20:44.636Z,49.13
2019-05-13T08:23:11.803Z,49.39
2019-05-13T08:25:37.773Z,48.04
2019-05-13T08:28:03.679Z,46.69
2019-05-13T08:30:31.686Z,48.31
2019-05-13T08:32:56.207Z,48.07
2019-05-13T08:35:22.601Z,47.59
2019-05-13T08:37:48.961Z,46.79
2019-05-13T08:40:15.033Z,45.35
2019-05-13T08:42:41.507Z,46.55
2019-05-13T08:45:11.855Z,44.96
2019-05-13T08:47:36.516Z,46.80
2019-05-13T08:50:04.538Z,47.17
2019-05-13T08:52:31.316Z,47.81
2019-05-13T08:55:01.362Z,45.61
2019-05-13T08:57:26.320Z,47.04
2019-05-13T08:59:51.845Z,46.37
2019-05-13T09:02:17.332Z,46.00
2019-05-13T09:04:43.140Z,48.24
2019-05-13T09:07:08.594Z,47.37
2019-05-13T09:09:41.982Z,47.24
2019-05-13T09:12:07.647Z,45.37
2019-05-13T09:15:58.878Z,46.20
2019-05-13T09:18:24.332Z,45.96
2019-05-13T09:20:52.074Z,42.44
2019-05-13T09:23:17.298Z,41.53
2019-05-13T09:25:43.021Z,40.81
2019-05-13T09:28:08.493Z,42.94
2019-05-13T09:30:34.126Z,42.34
2019-05-13T09:33:01.813Z,40.58
2019-05-13T09:35:26.755Z,40.37
2019-05-13T09:37:52.482Z,38.98
2019-05-13T09:40:18.037Z,39.67
2019-05-13T09:42:51.616Z,39.67
2019-05-13T09:45:12.252Z,39.29
2019-05-13T09:47:37.948Z,38.61
2019-05-13T09:50:04.598Z,39.56
2019-05-13T09:52:31.945Z,40.67
2019-05-13T09:54:57.493Z,39.14
2019-05-13T09:57:23.242Z,39.33
2019-05-13T09:59:48.719Z,37.94
2019-05-13T10:02:14.166Z,36.74
2019-05-13T10:04:43.213Z,37.22
2019-05-13T10:07:06.818Z,36.78
2019-05-13T10:09:32.958Z,36.82
2019-05-13T10:11:58.612Z,37.02
2019-05-13T10:14:24.060Z,36.50
2019-05-13T10:16:51.515Z,36.09
2019-05-13T10:19:17.220Z,35.21
2019-05-13T10:21:42.716Z,36.49
2019-05-13T10:24:08.432Z,36.49
2019-05-13T10:26:34.023Z,35.69
2019-05-13T10:28:59.602Z,34.52
2019-05-13T10:31:25.038Z,36.76
2019-05-13T10:33:51.396Z,35.63
2019-05-13T10:36:17.538Z,35.57
2019-05-13T10:38:42.997Z,36.33
2019-05-13T10:41:08.456Z,35.53
2019-05-13T10:43:40.055Z,36.53
2019-05-13T10:46:02.569Z,35.83
2019-05-13T10:48:28.514Z,35.27
2019-05-13T10:50:54.337Z,37.87
2019-05-13T10:53:22.156Z,36.20
2019-05-13T10:55:46.992Z,36.31
2019-05-13T10:58:12.523Z,35.62
2019-05-13T11:00:54.307Z,33.70
2019-05-13T11:03:22.738Z,33.63
2019-05-13T11:05:48.393Z,34.44
2019-05-13T11:08:13.861Z,34.20
2019-05-13T11:10:41.966Z,31.88
2019-05-13T11:13:10.663Z,31.67
2019-05-13T11:15:41.115Z,33.22
2019-05-13T11:18:03.132Z,31.92
2019-05-13T11:20:29.018Z,32.22
2019-05-13T11:22:54.739Z,32.50
2019-05-13T11:25:21.844Z,32.89
2019-05-13T11:27:47.628Z,32.43
2019-05-13T11:30:13.284Z,32.58
2019-05-13T11:32:38.819Z,33.25
2019-05-13T11:35:04.279Z,34.14
2019-05-13T11:37:31.845Z,33.25
2019-05-13T11:39:56.869Z,32.07
2019-05-13T11:42:22.984Z,32.41
2019-05-13T11:44:52.544Z,32.25
2019-05-13T11:47:16.358Z,29.92
2019-05-13T11:49:42.519Z,29.54
2019-05-13T11:52:08.261Z,30.86
2019-05-13T11:54:33.707Z,31.03
2019-05-13T11:57:05.960Z,29.33
2019-05-13T11:59:28.557Z,29.58
2019-05-13T12:04:23.960Z,30.16
2019-05-13T12:06:50.235Z,30.17
2019-05-13T12:09:15.816Z,31.70
2019-05-13T12:11:41.410Z,30.06
2019-05-13T12:14:06.905Z,30.59
2019-05-13T12:16:35.025Z,30.95
2019-05-13T12:19:03.094Z,30.68
2019-05-13T12:21:26.849Z,29.52
2019-05-13T12:23:53.033Z,30.52
2019-05-13T12:26:18.603Z,28.47
2019-05-13T12:28:44.073Z,30.26
2019-05-13T12:31:12.035Z,30.13
2019-05-13T12:33:36.784Z,29.58
2019-05-13T12:36:02.491Z,28.83
2019-05-13T12:38:32.622Z,28.05
2019-05-13T12:40:57.419Z,29.15
2019-05-13T12:43:24.312Z,30.10
2019-05-13T12:45:53.045Z,27.29
2019-05-13T12:48:17.168Z,28.17
2019-05-13T12:50:43.396Z,27.54
2019-05-13T12:53:12.275Z,29.18
2019-05-13T12:55:36.440Z,28.91
2019-05-13T12:58:02.879Z,27.80
2019-05-13T13:00:28.938Z,28.23
2019-05-13T13:02:54.917Z,28.25
2019-05-13T13:05:24.014Z,31.07
2019-05-13T13:08:13.479Z,28.70
2019-05-13T13:10:15.912Z,29.97
2019-05-13T13:12:43.446Z,29.40
2019-05-13T13:15:32.913Z,28.32
2019-05-13T13:17:36.438Z,29.56
2019-05-13T13:20:08.804Z,27.40
2019-05-13T13:22:31.430Z,26.99
2019-05-13T13:24:57.542Z,26.79
2019-05-13T13:27:57.417Z,26.78
2019-05-13T13:29:58.951Z,27.36
2019-05-13T13:32:17.574Z,26.88
2019-05-13T13:34:44.286Z,27.00
2019-05-13T13:37:09.992Z,26.79
2019-05-13T13:39:44.853Z,26.37
2019-05-13T13:42:13.016Z,27.87
2019-05-13T13:44:37.860Z,26.38
2019-05-13T13:47:03.418Z,25.90
2019-05-13T13:49:28.781Z,26.21
2019-05-13T13:51:54.605Z,25.45
2019-05-13T13:54:22.369Z,25.64
2019-05-13T13:56:47.480Z,25.58
2019-05-13T13:59:14.118Z,25.72
2019-05-13T14:01:40.054Z,25.76
2019-05-13T14:04:05.587Z,25.75
2019-05-13T14:07:02.788Z,30.23
2019-05-13T14:08:58.235Z,26.16
2019-05-13T14:11:27.033Z,27.12
2019-05-13T14:13:52.501Z,27.19
2019-05-13T14:16:28.049Z,26.82
2019-05-13T14:18:45.125Z,26.43
2019-05-13T14:21:10.669Z,26.12
2019-05-13T14:23:37.980Z,24.82
2019-05-13T14:26:03.579Z,25.54
2019-05-13T14:28:32.517Z,24.96
2019-05-13T14:30:57.046Z,25.94
2019-05-13T14:33:22.585Z,25.21
2019-05-13T14:35:48.105Z,25.04
2019-05-13T14:38:13.994Z,25.88
2019-05-13T14:40:39.443Z,25.08
2019-05-13T14:43:05.179Z,24.41
2019-05-13T14:45:31.762Z,24.46
2019-05-13T14:47:57.373Z,24.83
2019-05-13T14:50:22.878Z,25.77
2019-05-13T14:52:48.453Z,24.08
2019-05-13T14:55:14.058Z,24.06
2019-05-13T14:57:41.890Z,24.22
2019-05-13T15:00:08.539Z,24.63
2019-05-13T15:02:35.941Z,24.66
2019-05-13T15:05:02.676Z,24.42
2019-05-13T15:07:28.224Z,25.55
2019-05-13T15:09:53.675Z,25.42
2019-05-13T15:12:21.448Z,25.21
2019-05-13T15:15:00.877Z,25.71
2019-05-13T15:17:25.739Z,26.00
2019-05-13T15:19:52.487Z,25.47
2019-05-13T15:22:18.117Z,25.52
2019-05-13T15:24:43.573Z,24.80
2019-05-13T15:27:09.051Z,25.30
2019-05-13T15:29:34.770Z,25.17
2019-05-13T15:32:02.062Z,25.46
2019-05-13T15:34:27.671Z,25.38
2019-05-13T15:36:53.160Z,25.59
2019-05-13T15:39:19.048Z,25.19
2019-05-13T15:41:54.286Z,25.57
2019-05-13T15:44:21.951Z,24.43
2019-05-13T15:46:47.279Z,25.37
2019-05-13T15:49:12.724Z,25.47
2019-05-13T15:51:38.190Z,26.63
2019-05-13T15:54:03.637Z,24.80
2019-05-13T16:03:21.055Z,24.12
2019-05-13T16:05:46.686Z,26.22
2019-05-13T16:08:13.768Z,25.09
2019-05-13T16:10:41.472Z,24.54
2019-05-13T16:13:06.688Z,24.25
2019-05-13T16:15:32.229Z,24.20
2019-05-13T16:18:08.404Z,25.06
2019-05-13T16:20:35.839Z,24.64
2019-05-13T16:23:02.376Z,25.16
2019-05-13T16:25:28.065Z,24.64
2019-05-13T16:27:53.514Z,24.55
2019-05-13T16:30:19.450Z,24.96
2019-05-13T16:32:47.995Z,24.79
2019-05-13T16:35:13.581Z,26.08
2019-05-13T16:37:41.296Z,25.79
2019-05-13T16:40:07.298Z,25.18
2019-05-13T16:42:32.824Z,24.94
2019-05-13T16:44:58.400Z,25.09
2019-05-13T16:47:23.939Z,24.67
2019-05-13T16:49:49.377Z,25.01
2019-05-13T16:52:15.030Z,26.11
2019-05-13T16:54:42.480Z,25.83
2019-05-13T16:57:08.257Z,24.98
2019-05-13T16:59:33.770Z,25.76
2019-05-13T17:02:01.572Z,25.42
2019-05-13T17:04:26.694Z,25.61
2019-05-13T17:06:53.160Z,25.23
2019-05-13T17:09:18.946Z,25.12
2019-05-13T17:11:44.658Z,25.66
2019-05-13T17:14:10.106Z,25.84
2019-05-13T17:16:36.055Z,25.74
2019-05-13T17:19:01.770Z,26.02
2019-05-13T17:21:27.422Z,26.61
2019-05-13T17:23:53.233Z,26.81
2019-05-13T17:26:18.721Z,27.00
2019-05-13T17:28:44.488Z,27.44
2019-05-13T17:31:11.484Z,27.44
2019-05-13T17:33:38.352Z,27.56
2019-05-13T17:36:03.835Z,27.67
2019-05-13T17:38:29.312Z,28.30
2019-05-13T17:40:55.069Z,28.47
2019-05-13T17:43:21.303Z,28.60
2019-05-13T17:45:47.073Z,28.52
2019-05-13T17:48:25.756Z,28.76
2019-05-13T17:50:41.347Z,28.78
2019-05-13T17:53:07.234Z,28.65
2019-05-13T17:55:32.709Z,28.97
2019-05-13T17:57:58.110Z,28.83
2019-05-13T18:00:24.152Z,29.06
2019-05-13T18:02:51.403Z,29.05
2019-05-13T18:05:18.777Z,28.69
2019-05-13T18:07:44.165Z,29.81
2019-05-13T18:10:14.168Z,30.15
2019-05-13T18:12:38.365Z,29.92
2019-05-13T18:15:08.407Z,30.14
2019-05-13T18:17:34.132Z,30.00
2019-05-13T18:20:02.071Z,30.21
2019-05-13T18:22:27.041Z,30.51
2019-05-13T18:24:52.670Z,30.81
2019-05-13T18:27:18.417Z,30.38
2019-05-13T18:29:44.245Z,30.98
2019-05-13T18:32:12.128Z,30.83
2019-05-13T18:34:37.176Z,30.98
2019-05-13T18:37:02.756Z,31.26
2019-05-13T18:39:29.214Z,31.97
2019-05-13T18:41:54.759Z,31.43
2019-05-13T18:44:20.437Z,32.02
2019-05-13T18:46:45.869Z,32.13
2019-05-13T18:49:12.363Z,32.34
2019-05-13T18:51:38.333Z,32.02
2019-05-13T18:54:04.051Z,32.79
2019-05-13T18:56:29.655Z,32.68
2019-05-13T18:58:55.195Z,32.56
2019-05-13T19:01:21.606Z,32.97
2019-05-13T19:03:47.186Z,33.29
2019-05-13T19:06:12.481Z,33.57
2019-05-13T19:08:38.180Z,33.81
2019-05-13T19:11:03.699Z,33.01
2019-05-13T19:13:32.100Z,33.35
2019-05-13T19:15:56.678Z,33.41
2019-05-13T19:18:22.325Z,33.12
2019-05-13T19:20:51.377Z,33.00
2019-05-13T19:23:17.437Z,32.47
2019-05-13T19:25:42.983Z,32.90
2019-05-13T19:28:11.841Z,32.76
2019-05-13T19:30:37.732Z,33.16
2019-05-13T19:33:03.260Z,32.74
2019-05-13T19:35:32.372Z,32.22
2019-05-13T19:37:57.910Z,32.71
2019-05-13T19:40:23.594Z,32.59
2019-05-13T19:42:50.960Z,32.54
2019-05-13T19:45:16.279Z,32.88
2019-05-13T19:47:42.094Z,32.97
2019-05-13T19:50:08.330Z,32.89
2019-05-13T19:52:33.794Z,32.62
2019-05-13T19:55:01.431Z,33.93
2019-05-13T19:57:26.412Z,33.33
2019-05-13T19:59:51.864Z,33.48
2019-05-13T20:02:17.732Z,33.69
2019-05-13T20:04:43.392Z,34.52
2019-05-13T20:07:08.905Z,34.30
2019-05-13T20:09:34.649Z,36.22
2019-05-13T20:12:01.981Z,34.31
2019-05-13T20:14:30.674Z,34.34
2019-05-13T20:16:56.397Z,34.75
2019-05-13T20:19:23.369Z,35.31
2019-05-13T20:21:48.886Z,36.16
2019-05-13T20:24:14.524Z,36.88
2019-05-13T20:26:41.425Z,35.23
2019-05-13T20:29:09.418Z,35.34
2019-05-13T20:31:34.488Z,35.04
2019-05-13T20:34:01.695Z,35.46
2019-05-13T20:36:27.668Z,36.96
2019-05-13T20:38:53.249Z,35.93
2019-05-13T20:41:18.716Z,36.69
2019-05-13T20:43:44.200Z,36.31
2019-05-13T20:46:11.319Z,35.75
2019-05-13T20:48:37.189Z,36.30
2019-05-13T20:51:02.883Z,37.30
2019-05-13T20:53:28.263Z,36.28
2019-05-13T20:55:53.720Z,37.72
2019-05-13T20:58:21.304Z,36.54
2019-05-13T21:00:46.723Z,36.25
2019-05-13T21:03:12.322Z,36.49
2019-05-13T21:05:37.904Z,36.89
2019-05-13T21:08:05.163Z,37.43
2019-05-13T21:10:31.497Z,36.13
2019-05-13T21:12:57.073Z,36.69
2019-05-13T21:15:22.646Z,36.22
2019-05-13T21:17:51.580Z,36.51
2019-05-13T21:20:22.038Z,36.92
2019-05-13T21:22:44.816Z,36.81
2019-05-13T21:25:10.455Z,37.93
2019-05-13T21:27:35.803Z,37.39
2019-05-13T21:30:03.343Z,36.63
2019-05-13T21:32:28.659Z,36.69
2019-05-13T21:34:56.483Z,37.57
2019-05-13T21:37:22.275Z,37.16
2019-05-13T21:39:48.053Z,38.69
2019-05-13T21:42:13.503Z,38.10
2019-05-13T21:44:38.949Z,38.22
2019-05-13T21:47:04.299Z,37.94
2019-05-13T21:49:31.922Z,38.70
2019-05-13T21:51:58.079Z,39.38
2019-05-13T21:54:23.455Z,39.47
2019-05-13T21:56:48.872Z,39.39
2019-05-13T21:59:14.332Z,39.73
2019-05-13T22:01:42.089Z,39.48
2019-05-13T22:04:07.172Z,40.13
2019-05-13T22:06:32.887Z,40.21
2019-05-13T22:08:58.617Z,40.30
2019-05-13T22:11:24.364Z,41.18
2019-05-13T22:13:51.407Z,40.72
2019-05-13T22:16:16.962Z,41.05
2019-05-13T22:18:42.324Z,41.53
2019-05-13T22:21:07.797Z,42.31
2019-05-13T22:23:33.223Z,41.99
2019-05-13T22:26:01.795Z,41.92
2019-05-13T22:28:27.351Z,41.91
2019-05-13T22:30:53.094Z,42.92
2019-05-13T22:33:18.560Z,42.91
2019-05-13T22:35:44.010Z,43.30
2019-05-13T22:38:12.056Z,43.07
2019-05-13T22:40:36.663Z,43.04
2019-05-13T22:43:02.150Z,43.43
2019-05-13T22:45:27.620Z,43.31
2019-05-13T22:47:53.083Z,44.07
2019-05-13T22:50:18.613Z,43.95
2019-05-13T22:52:44.073Z,44.01
2019-05-13T22:55:11.555Z,44.59
2019-05-13T22:57:36.821Z,44.51
2019-05-13T23:00:02.273Z,45.03
2019-05-13T23:02:27.834Z,44.74
2019-05-13T23:04:53.163Z,44.47
2019-05-13T23:07:18.886Z,44.33
2019-05-13T23:09:44.334Z,44.68
2019-05-13T23:12:12.108Z,45.32
2019-05-13T23:14:37.022Z,45.43
2019-05-13T23:17:02.458Z,45.83
2019-05-13T23:19:27.905Z,45.50
2019-05-13T23:21:53.362Z,46.33
2019-05-13T23:24:18.845Z,46.35
2019-05-13T23:26:44.268Z,46.14
2019-05-13T23:29:09.729Z,45.70
2019-05-13T23:31:35.189Z,46.42
2019-05-13T23:34:01.429Z,46.63
2019-05-13T23:36:27.422Z,46.54
2019-05-13T23:38:52.727Z,47.10
2019-05-13T23:41:18.246Z,46.62
2019-05-13T23:43:44.015Z,46.64
2019-05-13T23:46:11.608Z,46.65
2019-05-13T23:48:36.812Z,47.69
2019-05-13T23:51:02.291Z,48.18
2019-05-13T23:53:27.977Z,48.34
2019-05-13T23:55:53.680Z,48.05
2019-05-13T23:58:21.496Z,48.35
